sensor_id;sensor_type;location;lat;lon;timestamp;temperature;humidity
23267;DHT22;11802;53.160;8.214;2024-02-15T00:00:47;12.20;99.90
23267;DHT22;11802;53.160;8.214;2024-02-15T00:03:13;12.10;99.90
23267;DHT22;11802;53.160;8.214;2024-02-15T00:05:39;12.20;99.90
23267;DHT22;11802;53.160;8.214;2024-02-15T00:08:05;12.20;99.90
23267;DHT22;11802;53.160;8.214;2024-02-15T00:10:31;12.20;99.90
23267;DHT22;11802;53.160;8.214;2024-02-15T00:12:57;12.20;99.90
23267;DHT22;11802;53.160;8.214;2024-02-15T00:15:23;12.20;99.90
23267;DHT22;11802;53.160;8.214;2024-02-15T00:17:48;12.20;99.90
23267;DHT22;11802;53.160;8.214;2024-02-15T00:20:14;12.20;99.90
23267;DHT22;11802;53.160;8.214;2024-02-15T00:22:40;12.20;99.90
23267;DHT22;11802;53.160;8.214;2024-02-15T00:25:08;12.20;99.90
23267;DHT22;11802;53.160;8.214;2024-02-15T00:27:35;12.10;99.90
23267;DHT22;11802;53.160;8.214;2024-02-15T00:30:01;12.10;99.90
23267;DHT22;11802;53.160;8.214;2024-02-15T00:32:27;12.10;99.90
23267;DHT22;11802;53.160;8.214;2024-02-15T00:34:53;12.20;99.90
23267;DHT22;11802;53.160;8.214;2024-02-15T00:37:19;12.20;99.90
23267;DHT22;11802;53.160;8.214;2024-02-15T00:39:44;12.10;99.90
23267;DHT22;11802;53.160;8.214;2024-02-15T00:42:10;12.10;99.90
23267;DHT22;11802;53.160;8.214;2024-02-15T00:44:36;12.20;99.90
23267;DHT22;11802;53.160;8.214;2024-02-15T00:47:02;12.20;99.90
23267;DHT22;11802;53.160;8.214;2024-02-15T00:49:28;12.10;99.90
23267;DHT22;11802;53.160;8.214;2024-02-15T00:51:53;12.10;99.90
23267;DHT22;11802;53.160;8.214;2024-02-15T00:54:19;12.10;99.90
23267;DHT22;11802;53.160;8.214;2024-02-15T00:56:45;12.10;99.90
23267;DHT22;11802;53.160;8.214;2024-02-15T00:59:10;12.10;99.90
23267;DHT22;11802;53.160;8.214;2024-02-15T01:01:36;12.10;99.90
23267;DHT22;11802;53.160;8.214;2024-02-15T01:04:05;12.10;99.90
23267;DHT22;11802;53.160;8.214;2024-02-15T01:06:30;12.10;99.90
23267;DHT22;11802;53.160;8.214;2024-02-15T01:08:56;12.10;99.90
23267;DHT22;11802;53.160;8.214;2024-02-15T01:11:22;12.10;99.90
23267;DHT22;11802;53.160;8.214;2024-02-15T01:13:49;12.20;99.90
23267;DHT22;11802;53.160;8.214;2024-02-15T01:16:16;12.20;99.90
23267;DHT22;11802;53.160;8.214;2024-02-15T01:18:42;12.20;99.90
23267;DHT22;11802;53.160;8.214;2024-02-15T01:21:07;12.20;99.90
23267;DHT22;11802;53.160;8.214;2024-02-15T01:23:34;12.20;99.90
23267;DHT22;11802;53.160;8.214;2024-02-15T01:26:00;12.20;99.90
23267;DHT22;11802;53.160;8.214;2024-02-15T01:28:26;12.20;99.90
23267;DHT22;11802;53.160;8.214;2024-02-15T01:30:51;12.20;99.90
23267;DHT22;11802;53.160;8.214;2024-02-15T01:33:17;12.20;99.90
23267;DHT22;11802;53.160;8.214;2024-02-15T01:35:43;12.20;99.90
23267;DHT22;11802;53.160;8.214;2024-02-15T01:38:09;12.20;99.90
23267;DHT22;11802;53.160;8.214;2024-02-15T01:40:34;12.20;99.90
23267;DHT22;11802;53.160;8.214;2024-02-15T01:43:00;12.20;99.90
23267;DHT22;11802;53.160;8.214;2024-02-15T01:45:26;12.20;99.90
23267;DHT22;11802;53.160;8.214;2024-02-15T01:47:53;12.20;99.90
23267;DHT22;11802;53.160;8.214;2024-02-15T01:50:20;12.20;99.90
23267;DHT22;11802;53.160;8.214;2024-02-15T01:52:47;12.20;99.90
23267;DHT22;11802;53.160;8.214;2024-02-15T01:55:14;12.20;99.90
23267;DHT22;11802;53.160;8.214;2024-02-15T01:57:43;12.20;99.90
23267;DHT22;11802;53.160;8.214;2024-02-15T02:00:10;12.20;99.90
23267;DHT22;11802;53.160;8.214;2024-02-15T02:02:39;12.20;99.90
23267;DHT22;11802;53.160;8.214;2024-02-15T02:05:05;12.20;99.90
23267;DHT22;11802;53.160;8.214;2024-02-15T02:07:31;12.20;99.90
23267;DHT22;11802;53.160;8.214;2024-02-15T02:09:57;12.20;99.90
23267;DHT22;11802;53.160;8.214;2024-02-15T02:12:22;12.30;99.90
23267;DHT22;11802;53.160;8.214;2024-02-15T02:14:50;12.20;99.90
23267;DHT22;11802;53.160;8.214;2024-02-15T02:17:15;12.30;99.90
23267;DHT22;11802;53.160;8.214;2024-02-15T02:19:44;12.20;99.90
23267;DHT22;11802;53.160;8.214;2024-02-15T02:22:09;12.20;99.90
23267;DHT22;11802;53.160;8.214;2024-02-15T02:27:19;12.20;99.90
23267;DHT22;11802;53.160;8.214;2024-02-15T02:29:46;12.20;99.90
23267;DHT22;11802;53.160;8.214;2024-02-15T02:32:11;12.20;99.90
23267;DHT22;11802;53.160;8.214;2024-02-15T02:34:38;12.20;99.90
23267;DHT22;11802;53.160;8.214;2024-02-15T02:37:04;12.20;99.90
23267;DHT22;11802;53.160;8.214;2024-02-15T02:39:31;12.20;99.90
23267;DHT22;11802;53.160;8.214;2024-02-15T02:41:57;12.20;99.90
23267;DHT22;11802;53.160;8.214;2024-02-15T02:44:23;12.20;99.90
23267;DHT22;11802;53.160;8.214;2024-02-15T02:46:49;12.20;99.90
23267;DHT22;11802;53.160;8.214;2024-02-15T02:49:14;12.20;99.90
23267;DHT22;11802;53.160;8.214;2024-02-15T02:51:40;12.20;99.90
23267;DHT22;11802;53.160;8.214;2024-02-15T02:54:05;12.20;99.90
23267;DHT22;11802;53.160;8.214;2024-02-15T02:56:32;12.20;99.90
23267;DHT22;11802;53.160;8.214;2024-02-15T02:58:58;12.10;99.90
23267;DHT22;11802;53.160;8.214;2024-02-15T03:01:24;12.10;99.90
23267;DHT22;11802;53.160;8.214;2024-02-15T03:03:53;12.10;99.90
23267;DHT22;11802;53.160;8.214;2024-02-15T03:06:21;12.10;99.90
23267;DHT22;11802;53.160;8.214;2024-02-15T03:08:47;12.20;99.90
23267;DHT22;11802;53.160;8.214;2024-02-15T03:11:13;12.20;99.90
23267;DHT22;11802;53.160;8.214;2024-02-15T03:13:39;12.10;99.90
23267;DHT22;11802;53.160;8.214;2024-02-15T03:16:05;12.10;99.90
23267;DHT22;11802;53.160;8.214;2024-02-15T03:18:31;12.10;99.90
23267;DHT22;11802;53.160;8.214;2024-02-15T03:21:00;12.10;99.90
23267;DHT22;11802;53.160;8.214;2024-02-15T03:23:26;12.10;99.90
23267;DHT22;11802;53.160;8.214;2024-02-15T03:25:52;12.10;99.90
23267;DHT22;11802;53.160;8.214;2024-02-15T03:28:19;12.10;99.90
23267;DHT22;11802;53.160;8.214;2024-02-15T03:30:46;12.00;99.90
23267;DHT22;11802;53.160;8.214;2024-02-15T03:33:12;12.00;99.90
23267;DHT22;11802;53.160;8.214;2024-02-15T03:35:38;12.00;99.90
23267;DHT22;11802;53.160;8.214;2024-02-15T03:38:04;12.00;99.90
23267;DHT22;11802;53.160;8.214;2024-02-15T03:40:30;12.00;99.90
23267;DHT22;11802;53.160;8.214;2024-02-15T03:42:57;12.00;99.90
23267;DHT22;11802;53.160;8.214;2024-02-15T03:45:23;12.00;99.90
23267;DHT22;11802;53.160;8.214;2024-02-15T03:47:51;12.00;99.90
23267;DHT22;11802;53.160;8.214;2024-02-15T03:50:17;12.00;99.90
23267;DHT22;11802;53.160;8.214;2024-02-15T03:52:47;12.00;99.90
23267;DHT22;11802;53.160;8.214;2024-02-15T03:55:13;12.00;99.90
23267;DHT22;11802;53.160;8.214;2024-02-15T03:57:39;11.90;99.90
23267;DHT22;11802;53.160;8.214;2024-02-15T04:00:12;11.90;99.90
23267;DHT22;11802;53.160;8.214;2024-02-15T04:02:46;11.90;99.90
23267;DHT22;11802;53.160;8.214;2024-02-15T04:05:13;11.90;99.90
23267;DHT22;11802;53.160;8.214;2024-02-15T04:07:38;11.90;99.90
23267;DHT22;11802;53.160;8.214;2024-02-15T04:10:05;11.90;99.90
23267;DHT22;11802;53.160;8.214;2024-02-15T04:12:32;11.90;99.90
23267;DHT22;11802;53.160;8.214;2024-02-15T04:14:57;11.90;99.90
23267;DHT22;11802;53.160;8.214;2024-02-15T04:17:30;11.90;99.90
23267;DHT22;11802;53.160;8.214;2024-02-15T04:19:58;11.90;99.90
23267;DHT22;11802;53.160;8.214;2024-02-15T04:22:23;11.90;99.90
23267;DHT22;11802;53.160;8.214;2024-02-15T04:24:49;11.90;99.90
23267;DHT22;11802;53.160;8.214;2024-02-15T04:27:15;11.90;99.90
23267;DHT22;11802;53.160;8.214;2024-02-15T04:29:41;11.90;99.90
23267;DHT22;11802;53.160;8.214;2024-02-15T04:32:12;11.90;99.90
23267;DHT22;11802;53.160;8.214;2024-02-15T04:34:39;12.00;99.90
23267;DHT22;11802;53.160;8.214;2024-02-15T04:37:05;11.90;99.90
23267;DHT22;11802;53.160;8.214;2024-02-15T04:39:37;11.90;99.90
23267;DHT22;11802;53.160;8.214;2024-02-15T04:42:03;12.00;99.90
23267;DHT22;11802;53.160;8.214;2024-02-15T04:44:30;12.00;99.90
23267;DHT22;11802;53.160;8.214;2024-02-15T04:46:57;11.90;99.90
23267;DHT22;11802;53.160;8.214;2024-02-15T04:49:24;11.90;99.90
23267;DHT22;11802;53.160;8.214;2024-02-15T04:51:49;11.90;99.90
23267;DHT22;11802;53.160;8.214;2024-02-15T04:54:15;11.90;99.90
23267;DHT22;11802;53.160;8.214;2024-02-15T04:56:41;11.90;99.90
23267;DHT22;11802;53.160;8.214;2024-02-15T04:59:08;11.90;99.90
23267;DHT22;11802;53.160;8.214;2024-02-15T05:01:37;11.90;99.90
23267;DHT22;11802;53.160;8.214;2024-02-15T05:04:02;11.90;99.90
23267;DHT22;11802;53.160;8.214;2024-02-15T05:06:33;11.90;99.90
23267;DHT22;11802;53.160;8.214;2024-02-15T05:08:58;11.90;99.90
23267;DHT22;11802;53.160;8.214;2024-02-15T05:11:25;11.90;99.90
23267;DHT22;11802;53.160;8.214;2024-02-15T05:13:51;11.90;99.90
23267;DHT22;11802;53.160;8.214;2024-02-15T05:16:18;11.90;99.90
23267;DHT22;11802;53.160;8.214;2024-02-15T05:18:44;11.90;99.90
23267;DHT22;11802;53.160;8.214;2024-02-15T05:21:11;11.90;99.90
23267;DHT22;11802;53.160;8.214;2024-02-15T05:23:38;11.90;99.90
23267;DHT22;11802;53.160;8.214;2024-02-15T05:26:05;11.90;99.90
23267;DHT22;11802;53.160;8.214;2024-02-15T05:28:31;11.90;99.90
23267;DHT22;11802;53.160;8.214;2024-02-15T05:33:38;11.90;99.90
23267;DHT22;11802;53.160;8.214;2024-02-15T05:36:12;11.90;99.90
23267;DHT22;11802;53.160;8.214;2024-02-15T05:38:39;11.90;99.90
23267;DHT22;11802;53.160;8.214;2024-02-15T05:41:05;11.90;99.90
23267;DHT22;11802;53.160;8.214;2024-02-15T05:43:33;11.90;99.90
23267;DHT22;11802;53.160;8.214;2024-02-15T05:45:59;11.90;99.90
23267;DHT22;11802;53.160;8.214;2024-02-15T05:48:26;11.90;99.90
23267;DHT22;11802;53.160;8.214;2024-02-15T05:50:54;11.90;99.90
23267;DHT22;11802;53.160;8.214;2024-02-15T05:53:20;11.90;99.90
23267;DHT22;11802;53.160;8.214;2024-02-15T05:55:45;11.90;99.90
23267;DHT22;11802;53.160;8.214;2024-02-15T05:58:11;11.90;99.90
23267;DHT22;11802;53.160;8.214;2024-02-15T06:00:39;11.90;99.90
23267;DHT22;11802;53.160;8.214;2024-02-15T06:03:06;11.90;99.90
23267;DHT22;11802;53.160;8.214;2024-02-15T06:05:32;12.00;99.90
23267;DHT22;11802;53.160;8.214;2024-02-15T06:08:00;12.00;99.90
23267;DHT22;11802;53.160;8.214;2024-02-15T06:10:26;12.00;99.90
23267;DHT22;11802;53.160;8.214;2024-02-15T06:12:51;12.00;99.90
23267;DHT22;11802;53.160;8.214;2024-02-15T06:15:17;12.00;99.90
23267;DHT22;11802;53.160;8.214;2024-02-15T06:17:43;12.00;99.90
23267;DHT22;11802;53.160;8.214;2024-02-15T06:20:15;12.00;99.90
23267;DHT22;11802;53.160;8.214;2024-02-15T06:22:43;12.00;99.90
23267;DHT22;11802;53.160;8.214;2024-02-15T06:25:09;12.00;99.90
23267;DHT22;11802;53.160;8.214;2024-02-15T06:27:39;12.00;99.90
23267;DHT22;11802;53.160;8.214;2024-02-15T06:30:12;12.00;99.90
23267;DHT22;11802;53.160;8.214;2024-02-15T06:32:57;12.00;99.90
23267;DHT22;11802;53.160;8.214;2024-02-15T06:35:42;12.00;99.90
23267;DHT22;11802;53.160;8.214;2024-02-15T06:38:26;12.10;99.90
23267;DHT22;11802;53.160;8.214;2024-02-15T06:41:10;12.10;99.90
23267;DHT22;11802;53.160;8.214;2024-02-15T06:43:36;12.10;99.90
23267;DHT22;11802;53.160;8.214;2024-02-15T06:46:02;12.10;99.90
23267;DHT22;11802;53.160;8.214;2024-02-15T06:48:31;12.10;99.90
23267;DHT22;11802;53.160;8.214;2024-02-15T06:50:57;12.10;99.90
23267;DHT22;11802;53.160;8.214;2024-02-15T06:53:24;12.20;99.90
23267;DHT22;11802;53.160;8.214;2024-02-15T06:55:52;12.10;99.90
23267;DHT22;11802;53.160;8.214;2024-02-15T06:58:17;12.10;99.90
23267;DHT22;11802;53.160;8.214;2024-02-15T07:00:43;12.20;99.90
23267;DHT22;11802;53.160;8.214;2024-02-15T07:03:09;12.20;99.90
23267;DHT22;11802;53.160;8.214;2024-02-15T07:05:36;12.20;99.90
23267;DHT22;11802;53.160;8.214;2024-02-15T07:08:04;12.20;99.90
23267;DHT22;11802;53.160;8.214;2024-02-15T07:10:30;12.20;99.90
23267;DHT22;11802;53.160;8.214;2024-02-15T07:12:57;12.20;99.90
23267;DHT22;11802;53.160;8.214;2024-02-15T07:15:22;12.30;99.90
23267;DHT22;11802;53.160;8.214;2024-02-15T07:17:48;12.20;99.90
23267;DHT22;11802;53.160;8.214;2024-02-15T07:20:14;12.30;99.90
23267;DHT22;11802;53.160;8.214;2024-02-15T07:22:43;12.30;99.90
23267;DHT22;11802;53.160;8.214;2024-02-15T07:25:11;12.30;99.90
23267;DHT22;11802;53.160;8.214;2024-02-15T07:27:36;12.30;99.90
23267;DHT22;11802;53.160;8.214;2024-02-15T07:30:02;12.30;99.90
23267;DHT22;11802;53.160;8.214;2024-02-15T07:32:31;12.30;99.90
23267;DHT22;11802;53.160;8.214;2024-02-15T07:34:57;12.40;99.90
23267;DHT22;11802;53.160;8.214;2024-02-15T07:37:22;12.40;99.90
23267;DHT22;11802;53.160;8.214;2024-02-15T07:39:51;12.40;99.90
23267;DHT22;11802;53.160;8.214;2024-02-15T07:42:17;12.40;99.90
23267;DHT22;11802;53.160;8.214;2024-02-15T07:44:42;12.50;99.90
23267;DHT22;11802;53.160;8.214;2024-02-15T07:47:08;12.50;99.90
23267;DHT22;11802;53.160;8.214;2024-02-15T07:49:36;12.50;99.90
23267;DHT22;11802;53.160;8.214;2024-02-15T07:52:02;12.50;99.90
23267;DHT22;11802;53.160;8.214;2024-02-15T07:54:31;12.50;99.90
23267;DHT22;11802;53.160;8.214;2024-02-15T07:56:58;12.60;99.90
23267;DHT22;11802;53.160;8.214;2024-02-15T07:59:24;12.60;99.90
23267;DHT22;11802;53.160;8.214;2024-02-15T08:01:50;12.60;99.90
23267;DHT22;11802;53.160;8.214;2024-02-15T08:04:16;12.60;99.90
23267;DHT22;11802;53.160;8.214;2024-02-15T08:06:43;12.60;99.90
23267;DHT22;11802;53.160;8.214;2024-02-15T08:09:09;12.70;99.90
23267;DHT22;11802;53.160;8.214;2024-02-15T08:11:39;12.60;99.90
23267;DHT22;11802;53.160;8.214;2024-02-15T08:14:06;12.60;99.90
23267;DHT22;11802;53.160;8.214;2024-02-15T08:16:33;12.70;99.90
23267;DHT22;11802;53.160;8.214;2024-02-15T08:19:00;12.70;99.90
23267;DHT22;11802;53.160;8.214;2024-02-15T08:21:27;12.60;99.90
23267;DHT22;11802;53.160;8.214;2024-02-15T08:23:55;12.70;99.90
23267;DHT22;11802;53.160;8.214;2024-02-15T08:26:21;12.70;99.90
23267;DHT22;11802;53.160;8.214;2024-02-15T08:28:47;12.70;99.90
23267;DHT22;11802;53.160;8.214;2024-02-15T08:31:56;12.70;99.90
23267;DHT22;11802;53.160;8.214;2024-02-15T08:34:30;12.70;99.90
23267;DHT22;11802;53.160;8.214;2024-02-15T08:36:55;12.70;99.90
23267;DHT22;11802;53.160;8.214;2024-02-15T08:39:23;12.80;99.90
23267;DHT22;11802;53.160;8.214;2024-02-15T08:41:50;12.80;99.90
23267;DHT22;11802;53.160;8.214;2024-02-15T08:44:17;12.70;99.90
23267;DHT22;11802;53.160;8.214;2024-02-15T08:46:44;12.70;99.90
23267;DHT22;11802;53.160;8.214;2024-02-15T08:49:10;12.80;99.90
23267;DHT22;11802;53.160;8.214;2024-02-15T08:51:39;12.90;99.90
23267;DHT22;11802;53.160;8.214;2024-02-15T08:54:04;12.80;99.90
23267;DHT22;11802;53.160;8.214;2024-02-15T08:56:30;12.80;99.90
23267;DHT22;11802;53.160;8.214;2024-02-15T08:58:56;12.80;99.90
23267;DHT22;11802;53.160;8.214;2024-02-15T09:01:23;12.80;99.90
23267;DHT22;11802;53.160;8.214;2024-02-15T09:03:49;12.80;99.90
23267;DHT22;11802;53.160;8.214;2024-02-15T09:06:14;12.80;99.90
23267;DHT22;11802;53.160;8.214;2024-02-15T09:08:40;12.80;99.90
23267;DHT22;11802;53.160;8.214;2024-02-15T09:11:06;12.80;99.90
23267;DHT22;11802;53.160;8.214;2024-02-15T09:13:31;12.80;99.90
23267;DHT22;11802;53.160;8.214;2024-02-15T09:15:59;12.80;99.90
23267;DHT22;11802;53.160;8.214;2024-02-15T09:18:24;12.80;99.90
23267;DHT22;11802;53.160;8.214;2024-02-15T09:20:50;12.90;99.90
23267;DHT22;11802;53.160;8.214;2024-02-15T09:23:21;12.90;99.90
23267;DHT22;11802;53.160;8.214;2024-02-15T09:25:49;12.90;99.90
23267;DHT22;11802;53.160;8.214;2024-02-15T09:28:17;12.90;99.90
23267;DHT22;11802;53.160;8.214;2024-02-15T09:30:47;12.90;99.90
23267;DHT22;11802;53.160;8.214;2024-02-15T09:33:13;12.80;99.90
23267;DHT22;11802;53.160;8.214;2024-02-15T09:35:39;12.80;99.90
23267;DHT22;11802;53.160;8.214;2024-02-15T09:38:04;12.80;99.90
23267;DHT22;11802;53.160;8.214;2024-02-15T09:40:31;12.80;99.90
23267;DHT22;11802;53.160;8.214;2024-02-15T09:42:57;12.80;99.90
23267;DHT22;11802;53.160;8.214;2024-02-15T09:45:23;12.80;99.90
23267;DHT22;11802;53.160;8.214;2024-02-15T09:47:50;12.70;99.90
23267;DHT22;11802;53.160;8.214;2024-02-15T09:50:18;12.80;99.90
23267;DHT22;11802;53.160;8.214;2024-02-15T09:52:45;12.80;99.90
23267;DHT22;11802;53.160;8.214;2024-02-15T09:55:11;12.80;99.90
23267;DHT22;11802;53.160;8.214;2024-02-15T09:57:46;12.90;99.90
23267;DHT22;11802;53.160;8.214;2024-02-15T10:00:12;12.80;99.90
23267;DHT22;11802;53.160;8.214;2024-02-15T10:02:47;12.80;99.90
23267;DHT22;11802;53.160;8.214;2024-02-15T10:05:13;12.80;99.90
23267;DHT22;11802;53.160;8.214;2024-02-15T10:07:39;12.80;99.90
23267;DHT22;11802;53.160;8.214;2024-02-15T10:10:22;12.90;99.90
23267;DHT22;11802;53.160;8.214;2024-02-15T10:12:48;12.90;99.90
23267;DHT22;11802;53.160;8.214;2024-02-15T10:15:37;12.90;99.90
23267;DHT22;11802;53.160;8.214;2024-02-15T10:25:38;13.10;99.90
23267;DHT22;11802;53.160;8.214;2024-02-15T10:28:11;13.10;99.90
23267;DHT22;11802;53.160;8.214;2024-02-15T10:30:40;13.20;99.90
23267;DHT22;11802;53.160;8.214;2024-02-15T10:33:20;13.30;99.90
23267;DHT22;11802;53.160;8.214;2024-02-15T10:36:08;13.20;99.90
23267;DHT22;11802;53.160;8.214;2024-02-15T10:38:34;13.10;99.90
23267;DHT22;11802;53.160;8.214;2024-02-15T10:41:03;13.10;99.90
23267;DHT22;11802;53.160;8.214;2024-02-15T10:43:33;13.10;99.90
23267;DHT22;11802;53.160;8.214;2024-02-15T10:49:54;13.10;99.90
23267;DHT22;11802;53.160;8.214;2024-02-15T10:52:43;13.00;99.90
23267;DHT22;11802;53.160;8.214;2024-02-15T11:05:17;13.10;99.90
23267;DHT22;11802;53.160;8.214;2024-02-15T11:07:48;13.10;99.90
23267;DHT22;11802;53.160;8.214;2024-02-15T11:10:42;13.10;99.90
23267;DHT22;11802;53.160;8.214;2024-02-15T11:19:53;13.10;99.90
23267;DHT22;11802;53.160;8.214;2024-02-15T11:22:18;13.10;99.90
23267;DHT22;11802;53.160;8.214;2024-02-15T11:24:49;13.20;99.90
23267;DHT22;11802;53.160;8.214;2024-02-15T11:27:27;13.20;99.90
23267;DHT22;11802;53.160;8.214;2024-02-15T11:30:00;13.30;99.90
23267;DHT22;11802;53.160;8.214;2024-02-15T11:32:49;13.40;99.90
23267;DHT22;11802;53.160;8.214;2024-02-15T11:36:01;13.60;99.90
23267;DHT22;11802;53.160;8.214;2024-02-15T11:45:18;13.80;99.90
23267;DHT22;11802;53.160;8.214;2024-02-15T11:47:47;13.80;99.90
23267;DHT22;11802;53.160;8.214;2024-02-15T11:50:14;13.80;99.90
23267;DHT22;11802;53.160;8.214;2024-02-15T11:52:50;13.80;99.90
23267;DHT22;11802;53.160;8.214;2024-02-15T11:55:20;13.80;99.90
23267;DHT22;11802;53.160;8.214;2024-02-15T11:57:59;13.90;99.90
23267;DHT22;11802;53.160;8.214;2024-02-15T12:00:31;13.90;99.90
23267;DHT22;11802;53.160;8.214;2024-02-15T12:03:16;13.90;99.90
23267;DHT22;11802;53.160;8.214;2024-02-15T12:06:01;13.80;99.90
23267;DHT22;11802;53.160;8.214;2024-02-15T12:09:03;13.80;99.90
23267;DHT22;11802;53.160;8.214;2024-02-15T12:12:09;13.70;99.90
23267;DHT22;11802;53.160;8.214;2024-02-15T12:15:00;13.80;99.90
23267;DHT22;11802;53.160;8.214;2024-02-15T12:18:14;13.90;99.90
23267;DHT22;11802;53.160;8.214;2024-02-15T12:20:58;13.70;99.90
23267;DHT22;11802;53.160;8.214;2024-02-15T12:26:48;13.70;99.90
23267;DHT22;11802;53.160;8.214;2024-02-15T12:29:17;13.60;99.90
23267;DHT22;11802;53.160;8.214;2024-02-15T12:31:43;13.60;99.90
23267;DHT22;11802;53.160;8.214;2024-02-15T12:34:09;13.50;99.90
23267;DHT22;11802;53.160;8.214;2024-02-15T12:36:36;13.50;99.90
23267;DHT22;11802;53.160;8.214;2024-02-15T12:39:04;13.40;99.90
23267;DHT22;11802;53.160;8.214;2024-02-15T12:41:48;13.40;99.90
23267;DHT22;11802;53.160;8.214;2024-02-15T12:44:18;13.40;99.90
23267;DHT22;11802;53.160;8.214;2024-02-15T12:46:56;13.40;99.90
23267;DHT22;11802;53.160;8.214;2024-02-15T12:51:53;13.50;99.90
23267;DHT22;11802;53.160;8.214;2024-02-15T12:54:20;13.50;99.90
23267;DHT22;11802;53.160;8.214;2024-02-15T12:56:47;13.40;99.90
23267;DHT22;11802;53.160;8.214;2024-02-15T12:59:18;13.40;99.90
23267;DHT22;11802;53.160;8.214;2024-02-15T13:01:45;13.40;99.90
23267;DHT22;11802;53.160;8.214;2024-02-15T13:04:24;13.40;99.90
23267;DHT22;11802;53.160;8.214;2024-02-15T13:06:54;13.40;99.90
23267;DHT22;11802;53.160;8.214;2024-02-15T13:09:19;13.40;99.90
23267;DHT22;11802;53.160;8.214;2024-02-15T13:11:48;13.40;99.90
23267;DHT22;11802;53.160;8.214;2024-02-15T13:14:15;13.40;99.90
23267;DHT22;11802;53.160;8.214;2024-02-15T13:16:40;13.40;99.90
23267;DHT22;11802;53.160;8.214;2024-02-15T13:19:08;13.40;99.90
23267;DHT22;11802;53.160;8.214;2024-02-15T13:21:33;13.50;99.90
23267;DHT22;11802;53.160;8.214;2024-02-15T13:24:00;13.50;99.90
23267;DHT22;11802;53.160;8.214;2024-02-15T13:26:30;13.60;99.90
23267;DHT22;11802;53.160;8.214;2024-02-15T13:28:56;13.60;99.90
23267;DHT22;11802;53.160;8.214;2024-02-15T13:31:21;13.60;99.90
23267;DHT22;11802;53.160;8.214;2024-02-15T13:33:48;13.60;99.90
23267;DHT22;11802;53.160;8.214;2024-02-15T13:36:13;13.70;99.90
23267;DHT22;11802;53.160;8.214;2024-02-15T13:38:41;13.70;99.90
23267;DHT22;11802;53.160;8.214;2024-02-15T13:41:07;13.60;99.90
23267;DHT22;11802;53.160;8.214;2024-02-15T13:43:33;13.60;99.90
23267;DHT22;11802;53.160;8.214;2024-02-15T13:45:59;13.60;99.90
23267;DHT22;11802;53.160;8.214;2024-02-15T13:48:32;13.60;99.90
23267;DHT22;11802;53.160;8.214;2024-02-15T13:54:34;13.60;99.90
23267;DHT22;11802;53.160;8.214;2024-02-15T13:57:11;13.60;99.90
23267;DHT22;11802;53.160;8.214;2024-02-15T13:59:42;13.60;99.90
23267;DHT22;11802;53.160;8.214;2024-02-15T14:02:19;13.70;99.90
23267;DHT22;11802;53.160;8.214;2024-02-15T14:04:45;13.70;99.90
23267;DHT22;11802;53.160;8.214;2024-02-15T14:07:10;13.70;99.90
23267;DHT22;11802;53.160;8.214;2024-02-15T14:09:36;13.90;99.90
23267;DHT22;11802;53.160;8.214;2024-02-15T14:12:02;13.80;99.90
23267;DHT22;11802;53.160;8.214;2024-02-15T14:14:31;13.80;99.90
23267;DHT22;11802;53.160;8.214;2024-02-15T14:16:56;13.80;99.90
23267;DHT22;11802;53.160;8.214;2024-02-15T14:19:22;13.90;99.90
23267;DHT22;11802;53.160;8.214;2024-02-15T14:21:51;13.80;99.90
23267;DHT22;11802;53.160;8.214;2024-02-15T14:24:19;13.80;99.90
23267;DHT22;11802;53.160;8.214;2024-02-15T14:26:48;13.80;99.90
23267;DHT22;11802;53.160;8.214;2024-02-15T14:29:14;13.80;99.90
23267;DHT22;11802;53.160;8.214;2024-02-15T14:31:40;13.80;99.90
23267;DHT22;11802;53.160;8.214;2024-02-15T14:34:24;13.70;99.90
23267;DHT22;11802;53.160;8.214;2024-02-15T14:36:51;13.70;99.90
23267;DHT22;11802;53.160;8.214;2024-02-15T14:39:16;13.70;99.90
23267;DHT22;11802;53.160;8.214;2024-02-15T14:41:43;13.70;99.90
23267;DHT22;11802;53.160;8.214;2024-02-15T14:44:09;13.60;99.90
23267;DHT22;11802;53.160;8.214;2024-02-15T14:46:35;13.60;99.90
23267;DHT22;11802;53.160;8.214;2024-02-15T14:49:01;13.60;99.90
23267;DHT22;11802;53.160;8.214;2024-02-15T14:51:28;13.60;99.90
23267;DHT22;11802;53.160;8.214;2024-02-15T14:53:54;13.50;99.90
23267;DHT22;11802;53.160;8.214;2024-02-15T14:56:19;13.50;99.90
23267;DHT22;11802;53.160;8.214;2024-02-15T14:58:45;13.50;99.90
23267;DHT22;11802;53.160;8.214;2024-02-15T15:01:10;13.50;99.90
23267;DHT22;11802;53.160;8.214;2024-02-15T15:03:38;13.50;99.90
23267;DHT22;11802;53.160;8.214;2024-02-15T15:06:04;13.50;99.90
23267;DHT22;11802;53.160;8.214;2024-02-15T15:08:48;13.50;99.90
23267;DHT22;11802;53.160;8.214;2024-02-15T15:11:32;13.50;99.90
23267;DHT22;11802;53.160;8.214;2024-02-15T15:14:16;13.50;99.90
23267;DHT22;11802;53.160;8.214;2024-02-15T15:16:42;13.40;99.90
23267;DHT22;11802;53.160;8.214;2024-02-15T15:19:08;13.40;99.90
23267;DHT22;11802;53.160;8.214;2024-02-15T15:21:35;13.40;99.90
23267;DHT22;11802;53.160;8.214;2024-02-15T15:24:01;13.40;99.90
23267;DHT22;11802;53.160;8.214;2024-02-15T15:26:26;13.40;99.90
23267;DHT22;11802;53.160;8.214;2024-02-15T15:28:52;13.40;99.90
23267;DHT22;11802;53.160;8.214;2024-02-15T15:31:19;13.40;99.90
23267;DHT22;11802;53.160;8.214;2024-02-15T15:33:45;13.30;99.90
23267;DHT22;11802;53.160;8.214;2024-02-15T15:36:10;13.30;99.90
23267;DHT22;11802;53.160;8.214;2024-02-15T15:38:36;13.30;99.90
23267;DHT22;11802;53.160;8.214;2024-02-15T15:41:02;13.30;99.90
23267;DHT22;11802;53.160;8.214;2024-02-15T15:43:29;13.30;99.90
23267;DHT22;11802;53.160;8.214;2024-02-15T15:45:54;13.30;99.90
23267;DHT22;11802;53.160;8.214;2024-02-15T15:48:22;13.30;99.90
23267;DHT22;11802;53.160;8.214;2024-02-15T15:50:48;13.40;99.90
23267;DHT22;11802;53.160;8.214;2024-02-15T15:53:14;13.30;99.90
23267;DHT22;11802;53.160;8.214;2024-02-15T15:55:40;13.30;99.90
23267;DHT22;11802;53.160;8.214;2024-02-15T15:58:05;13.30;99.90
23267;DHT22;11802;53.160;8.214;2024-02-15T16:00:35;13.30;99.90
23267;DHT22;11802;53.160;8.214;2024-02-15T16:03:01;13.30;99.90
23267;DHT22;11802;53.160;8.214;2024-02-15T16:05:28;13.30;99.90
23267;DHT22;11802;53.160;8.214;2024-02-15T16:07:53;13.20;99.90
23267;DHT22;11802;53.160;8.214;2024-02-15T16:10:19;13.20;99.90
23267;DHT22;11802;53.160;8.214;2024-02-15T16:12:49;13.20;99.90
23267;DHT22;11802;53.160;8.214;2024-02-15T16:15:16;13.20;99.90
23267;DHT22;11802;53.160;8.214;2024-02-15T16:17:45;13.20;99.90
23267;DHT22;11802;53.160;8.214;2024-02-15T16:20:11;13.20;99.90
23267;DHT22;11802;53.160;8.214;2024-02-15T16:22:40;13.20;99.90
23267;DHT22;11802;53.160;8.214;2024-02-15T16:25:07;13.20;99.90
23267;DHT22;11802;53.160;8.214;2024-02-15T16:27:35;13.20;99.90